Woodbridge, CT

2:56 PM EDT on September 02, 2014 (GMT -0400)
KCTWOODB4 | Change Station
CLOSE
Current Station
Personal Weather Station
Location: Woodbridge, CT
Elevation: 246 ft
Nearby Weather Stations

Elev 246 ft 41.34 °N, 73.02 °W | Updated 24 minutes ago

Partly Cloudy
Partly Cloudy
89.0 °F
Feels Like 96 °F
N
6.0
Wind Variable Wind from SE

Today
High -- | Low -- °F
--% Chance of Precip.
Yesterday
High -- | Low -- °F
Precip. -- in
6:19 AM 7:23 PM
First Quarter, 54% visible
Pressure 29.86 in
Visibility 10.0 miles
Clouds Scattered Clouds 5000 ft
Scattered Clouds 10000 ft
Mostly Cloudy 25000 ft
Heat Index 96 °F
Dew Point 72 °F
Humidity 57%
Rainfall 0.00 in
Snow Depth Not available.
UV 5 out of 12
Pollen 6.90 out of 12
Ozone Good
PM2.5 Moderate
Flu Activity Not available.
METAR KHVN 021753Z 24005KT 10SM SCT050 SCT100 BKN250 31/22 A2986 RMK AO2 SLP111 T03110222 10317 20250 58019

More Conditions Fewer Conditions

Pressure 29.86 in
Visibility 10.0 miles
Clouds Scattered Clouds 5000 ft
Scattered Clouds 10000 ft
Mostly Cloudy 25000 ft
Heat Index 96 °F
Dew Point 72 °F
Humidity 57%
Rainfall 0.00 in
Snow Depth Not available.
UV 5 out of 12
Pollen 6.90 out of 12
Ozone Good
PM2.5 Moderate
Flu Activity Not available.
METAR KHVN 021753Z 24005KT 10SM SCT050 SCT100 BKN250 31/22 A2986 RMK AO2 SLP111 T03110222 10317 20250 58019

More Conditions Fewer Conditions

10-Day Weather Forecast

Almanac

Astronomy

Sep. 02, 2014 Rise Set
Actual Time 6:19 AM EDT 7:23 PM EDT
Civil Twilight 5:50 AM EDT 7:51 PM EDT
Nautical Twilight 5:17 AM EDT 8:25 PM EDT
Astronomical Twilight 4:41 AM EDT 9:00 PM EDT
Moon 2:05 PM EDT No Moon Set
Length of Visible Light 14h 00m
Length of Day
13h 04m
Tomorrow will be 2m 40s shorter.
First Quarter, 54% of the Moon is Illuminated
Today
First Quarter
Sep 8
Full
Sep 15
Last Quarter
Sep 24
New
Oct 1
First Quarter

Today's Extremes

State Highs State Lows

Community

WunderPhotos

Upload Photos

1,749,743 photos uploaded!

WunderBlogs® & News

By Dr. Jeff Masters
Director of Meteorology, Weather Underground
By Kari Strenfel
Meteorologist, Weather Underground
By Christopher C. Burt
Weather Historian, Weather Underground
September 2, 2014
September 2, 2014
September 2, 2014

Nearby

Air Quality

  Air Quality AQ Index Pollutant
Yesterday Good
OZONE
Yesterday Good
PM10
Current Moderate
PM2.5
Current Good
OZONE
Tuesday Unhealthy for Sensitive Groups
OZONE
Tuesday Moderate
PM2.5
Wednesday Good
OZONE
Wednesday Good
PM2.5

Snow Depth

Station Depth Elevation
No new snow has been reported.

Earthquake Activity

City Distance Mag. Time & Date
No recent earthquake activity has been reported nearby.
Minimum magnitude displayed is 2.5.

Coastal Water Temperatures

Place Temperature
Bridgeport, CT 75.9 °F

Nearby Weather Stations